createdAt,value
2019-03-11T00:00:06.656Z,88.03
2019-03-11T00:02:32.483Z,88.27
2019-03-11T00:04:58.262Z,88.06
2019-03-11T00:07:24.041Z,88.26
2019-03-11T00:09:49.818Z,88.51
2019-03-11T00:12:15.610Z,88.63
2019-03-11T00:14:41.397Z,88.62
2019-03-11T00:17:07.204Z,88.67
2019-03-11T00:19:32.987Z,88.62
2019-03-11T00:21:58.789Z,88.61
2019-03-11T00:24:24.567Z,88.80
2019-03-11T00:26:50.366Z,89.15
2019-03-11T00:29:16.142Z,89.03
2019-03-11T00:31:41.949Z,89.18
2019-03-11T00:34:07.722Z,89.14
2019-03-11T00:36:33.546Z,89.01
2019-03-11T00:38:59.321Z,88.99
2019-03-11T00:41:25.109Z,88.36
2019-03-11T00:43:50.900Z,87.40
2019-03-11T00:46:16.688Z,86.84
2019-03-11T00:48:42.460Z,86.39
2019-03-11T00:51:08.256Z,86.16
2019-03-11T00:53:34.041Z,86.06
2019-03-11T00:55:59.819Z,86.12
2019-03-11T00:58:25.620Z,86.34
2019-03-11T01:00:51.414Z,86.18
2019-03-11T01:03:17.192Z,86.25
2019-03-11T01:05:43.069Z,86.19
2019-03-11T01:08:08.863Z,86.27
2019-03-11T01:10:34.643Z,86.10
2019-03-11T01:13:00.443Z,86.17
2019-03-11T01:15:26.242Z,86.34
2019-03-11T01:17:52.044Z,86.53
2019-03-11T01:20:17.822Z,86.84
2019-03-11T01:22:43.829Z,86.77
2019-03-11T01:25:11.126Z,86.68
2019-03-11T01:27:36.928Z,86.85
2019-03-11T01:30:09.379Z,86.92
2019-03-11T01:32:35.182Z,87.35
2019-03-11T01:35:00.974Z,87.56
2019-03-11T01:37:26.759Z,87.57
2019-03-11T01:39:52.552Z,87.90
2019-03-11T01:42:18.352Z,87.75
2019-03-11T01:44:44.137Z,87.76
2019-03-11T01:47:09.943Z,87.68
2019-03-11T01:49:35.735Z,87.59
2019-03-11T01:52:01.524Z,87.92
2019-03-11T01:54:27.330Z,87.98
2019-03-11T01:56:53.108Z,87.96
2019-03-11T01:59:18.906Z,87.65
2019-03-11T02:01:44.710Z,87.83
2019-03-11T02:04:10.503Z,87.79
2019-03-11T02:06:36.278Z,87.67
2019-03-11T02:09:02.590Z,87.96
2019-03-11T02:11:28.383Z,88.34
2019-03-11T02:13:54.180Z,88.72
2019-03-11T02:16:19.962Z,89.08
2019-03-11T02:18:45.755Z,89.44
2019-03-11T02:21:11.551Z,89.63
2019-03-11T02:23:37.336Z,89.60
2019-03-11T02:26:03.147Z,89.85
2019-03-11T02:28:28.981Z,90.38
2019-03-11T02:30:54.731Z,90.54
2019-03-11T02:33:20.513Z,90.75
2019-03-11T02:35:46.420Z,90.98
2019-03-11T02:38:12.201Z,91.35
2019-03-11T02:40:37.997Z,91.46
2019-03-11T02:43:03.812Z,91.59
2019-03-11T02:45:29.590Z,92.09
2019-03-11T02:47:55.387Z,91.97
2019-03-11T02:50:21.179Z,92.24
2019-03-11T02:52:46.951Z,92.09
2019-03-11T02:55:12.770Z,92.19
2019-03-11T02:57:38.553Z,92.26
2019-03-11T03:00:08.257Z,92.24
2019-03-11T03:02:41.542Z,92.38
2019-03-11T03:05:12.439Z,92.32
2019-03-11T03:07:38.223Z,92.19
2019-03-11T03:10:06.021Z,92.66
2019-03-11T03:12:31.837Z,92.88
2019-03-11T03:14:57.630Z,92.95
2019-03-11T03:17:23.411Z,93.22
2019-03-11T03:19:49.306Z,93.28
2019-03-11T03:22:15.148Z,93.02
2019-03-11T03:24:40.928Z,93.35
2019-03-11T03:27:06.716Z,93.75
2019-03-11T03:29:32.492Z,93.78
2019-03-11T03:31:58.293Z,93.92
2019-03-11T03:34:24.087Z,93.87
2019-03-11T03:36:49.879Z,93.88
2019-03-11T03:39:15.656Z,94.01
2019-03-11T03:41:41.448Z,93.78
2019-03-11T03:44:07.234Z,93.89
2019-03-11T03:46:33.020Z,93.69
2019-03-11T03:48:58.800Z,94.23
2019-03-11T03:51:24.614Z,94.22
2019-03-11T03:53:50.402Z,94.40
2019-03-11T03:56:16.204Z,94.44
2019-03-11T03:58:41.981Z,94.30
2019-03-11T04:01:07.767Z,94.10
2019-03-11T04:03:33.554Z,94.36
2019-03-11T04:05:59.319Z,94.10
2019-03-11T04:08:25.120Z,94.33
2019-03-11T04:10:50.998Z,94.45
2019-03-11T04:13:16.783Z,94.37
2019-03-11T04:15:42.577Z,94.32
2019-03-11T04:18:08.456Z,94.20
2019-03-11T04:20:34.334Z,94.27
2019-03-11T04:23:00.739Z,94.28
2019-03-11T04:25:28.125Z,94.21
2019-03-11T04:27:53.926Z,93.94
2019-03-11T04:30:23.609Z,94.08
2019-03-11T04:32:49.513Z,94.15
2019-03-11T04:35:15.292Z,93.99
2019-03-11T04:37:41.105Z,94.17
2019-03-11T04:40:14.378Z,94.39
2019-03-11T04:42:40.199Z,95.18
2019-03-11T04:45:10.807Z,95.64
2019-03-11T04:47:36.622Z,95.92
2019-03-11T04:50:05.126Z,95.89
2019-03-11T04:52:30.942Z,95.91
2019-03-11T04:54:56.725Z,95.91
2019-03-11T04:57:23.570Z,96.06
2019-03-11T04:59:49.540Z,96.10
2019-03-11T05:02:15.322Z,96.18
2019-03-11T05:04:41.134Z,96.13
2019-03-11T05:07:06.904Z,95.95
2019-03-11T05:09:32.696Z,95.87
2019-03-11T05:11:58.494Z,95.80
2019-03-11T05:14:24.289Z,95.87
2019-03-11T05:16:50.067Z,95.79
2019-03-11T05:19:15.863Z,95.36
2019-03-11T05:21:41.640Z,95.46
2019-03-11T05:24:07.451Z,95.25
2019-03-11T05:26:33.224Z,95.21
2019-03-11T05:28:59.050Z,95.21
2019-03-11T05:31:24.811Z,95.33
2019-03-11T05:33:50.614Z,95.07
2019-03-11T05:36:16.399Z,95.03
2019-03-11T05:38:42.206Z,94.90
2019-03-11T05:41:08.900Z,95.11
2019-03-11T05:43:34.880Z,94.94
2019-03-11T05:46:00.667Z,94.92
2019-03-11T05:48:26.448Z,94.79
2019-03-11T05:50:52.273Z,94.60
2019-03-11T05:53:18.057Z,94.55
2019-03-11T05:55:43.898Z,94.47
2019-03-11T05:58:09.738Z,94.31
2019-03-11T06:00:35.533Z,94.41
2019-03-11T06:03:01.330Z,94.28
2019-03-11T06:05:27.133Z,94.03
2019-03-11T06:07:52.909Z,93.94
2019-03-11T06:10:18.817Z,93.74
2019-03-11T06:12:44.603Z,93.76
2019-03-11T06:15:11.900Z,93.97
2019-03-11T06:17:37.888Z,93.97
2019-03-11T06:20:11.724Z,93.74
2019-03-11T06:22:37.523Z,93.46
2019-03-11T06:25:04.221Z,93.77
2019-03-11T06:27:30.019Z,94.25
2019-03-11T06:29:55.812Z,93.83
2019-03-11T06:32:21.601Z,93.66
2019-03-11T06:34:47.407Z,93.96
2019-03-11T06:37:13.187Z,94.19
2019-03-11T06:39:38.975Z,94.11
2019-03-11T06:42:04.783Z,94.06
2019-03-11T06:44:30.567Z,94.18
2019-03-11T06:46:56.364Z,94.56
2019-03-11T06:49:22.153Z,94.31
2019-03-11T06:51:47.998Z,94.15
2019-03-11T06:54:13.835Z,94.33
2019-03-11T06:56:39.615Z,94.21
2019-03-11T06:59:05.397Z,94.65
2019-03-11T07:01:31.198Z,94.62
2019-03-11T07:03:56.977Z,94.29
2019-03-11T07:06:22.790Z,94.45
2019-03-11T07:08:48.573Z,94.28
2019-03-11T07:11:14.380Z,94.28
2019-03-11T07:13:40.170Z,93.97
2019-03-11T07:16:05.963Z,93.92
2019-03-11T07:18:31.744Z,93.60
2019-03-11T07:20:57.525Z,93.76
2019-03-11T07:23:23.328Z,93.96
2019-03-11T07:25:49.193Z,93.85
2019-03-11T07:28:15.011Z,93.97
2019-03-11T07:30:40.788Z,93.69
2019-03-11T07:33:07.118Z,93.92
2019-03-11T07:35:32.977Z,93.95
2019-03-11T07:37:58.792Z,94.01
2019-03-11T07:40:29.725Z,94.17
2019-03-11T07:42:52.272Z,94.42
2019-03-11T07:45:18.049Z,94.50
2019-03-11T07:47:43.939Z,94.51
2019-03-11T07:50:11.116Z,94.36
2019-03-11T07:52:36.924Z,94.22
2019-03-11T07:55:05.424Z,94.51
2019-03-11T07:57:31.231Z,94.31
2019-03-11T07:59:57.008Z,94.14
2019-03-11T08:02:22.795Z,94.19
2019-03-11T08:04:48.579Z,94.02
2019-03-11T08:07:14.367Z,94.24
2019-03-11T08:09:40.147Z,94.09
2019-03-11T08:12:05.930Z,94.18
2019-03-11T08:14:31.703Z,93.68
2019-03-11T08:16:57.520Z,93.91
2019-03-11T08:19:23.300Z,93.89
2019-03-11T08:21:49.091Z,93.70
2019-03-11T08:24:16.749Z,93.49
2019-03-11T08:26:42.568Z,93.03
2019-03-11T08:29:08.359Z,93.26
2019-03-11T08:31:34.159Z,93.31
2019-03-11T08:33:59.950Z,92.84
2019-03-11T08:36:25.736Z,93.28
2019-03-11T08:38:51.545Z,93.05
2019-03-11T08:41:17.325Z,93.11
2019-03-11T08:43:43.118Z,92.99
2019-03-11T08:46:08.905Z,93.45
2019-03-11T08:48:34.688Z,92.72
2019-03-11T08:51:00.469Z,92.00
2019-03-11T08:53:26.282Z,92.44
2019-03-11T08:55:52.074Z,92.60
2019-03-11T08:58:17.870Z,92.21
2019-03-11T09:00:43.638Z,92.09
2019-03-11T09:03:09.447Z,92.33
2019-03-11T09:05:35.229Z,92.60
2019-03-11T09:08:01.020Z,91.62
2019-03-11T09:10:26.800Z,91.82
2019-03-11T09:12:52.610Z,91.76
2019-03-11T09:15:19.390Z,91.70
2019-03-11T09:17:45.187Z,92.11
2019-03-11T09:20:12.371Z,91.68
2019-03-11T09:22:38.197Z,92.29
2019-03-11T09:25:10.553Z,91.52
2019-03-11T09:27:36.355Z,91.11
2019-03-11T09:30:04.854Z,91.21
2019-03-11T09:32:30.636Z,91.38
2019-03-11T09:34:56.454Z,91.59
2019-03-11T09:37:22.235Z,91.59
2019-03-11T09:39:48.055Z,89.54
2019-03-11T09:42:13.838Z,89.54
2019-03-11T09:44:39.644Z,89.85
2019-03-11T09:47:05.425Z,89.85
2019-03-11T09:49:31.217Z,89.85
2019-03-11T09:51:56.998Z,90.31
2019-03-11T09:54:22.801Z,90.30
2019-03-11T09:56:48.576Z,89.73
2019-03-11T09:59:14.397Z,89.49
2019-03-11T10:01:40.163Z,88.60
2019-03-11T10:04:05.965Z,88.88
2019-03-11T10:06:31.748Z,89.21
2019-03-11T10:08:57.551Z,88.97
2019-03-11T10:11:23.346Z,89.97
2019-03-11T10:13:49.136Z,90.35
2019-03-11T10:16:14.940Z,90.21
2019-03-11T10:18:40.720Z,90.31
2019-03-11T10:21:06.514Z,90.78
2019-03-11T10:23:32.590Z,89.98
2019-03-11T10:25:58.498Z,89.70
2019-03-11T10:28:24.317Z,90.46
2019-03-11T10:30:50.221Z,89.96
2019-03-11T10:33:16.043Z,89.17
2019-03-11T10:35:41.818Z,87.73
2019-03-11T10:38:07.604Z,86.43
2019-03-11T10:40:33.422Z,87.69
2019-03-11T10:42:59.213Z,88.32
2019-03-11T10:45:31.198Z,89.55
2019-03-11T10:47:52.789Z,89.78
2019-03-11T10:50:19.698Z,89.96
2019-03-11T10:52:45.684Z,89.69
2019-03-11T10:55:19.412Z,90.09
2019-03-11T10:57:45.307Z,90.96
2019-03-11T11:00:15.011Z,91.05
2019-03-11T11:02:40.798Z,91.14
2019-03-11T11:05:07.604Z,90.45
2019-03-11T11:07:33.384Z,90.77
2019-03-11T11:09:59.187Z,91.09
2019-03-11T11:12:24.973Z,90.22
2019-03-11T11:14:50.771Z,89.98
2019-03-11T11:17:16.549Z,89.96
2019-03-11T11:19:42.355Z,90.15
2019-03-11T11:22:08.153Z,90.61
2019-03-11T11:24:33.950Z,91.28
2019-03-11T11:26:59.728Z,91.29
2019-03-11T11:29:25.533Z,91.59
2019-03-11T11:31:51.315Z,91.28
2019-03-11T11:34:17.104Z,91.72
2019-03-11T11:36:42.885Z,91.43
2019-03-11T11:39:08.685Z,91.40
2019-03-11T11:41:34.465Z,90.48
2019-03-11T11:44:00.271Z,89.71
2019-03-11T11:46:26.081Z,89.71
2019-03-11T11:48:51.861Z,89.27
2019-03-11T11:51:17.660Z,89.54
2019-03-11T11:53:43.436Z,87.60
2019-03-11T11:56:09.228Z,88.74
2019-03-11T11:58:35.007Z,88.12
2019-03-11T12:01:00.815Z,88.39
2019-03-11T12:03:26.612Z,87.20
2019-03-11T12:05:52.420Z,87.67
2019-03-11T12:08:18.199Z,86.41
2019-03-11T12:10:44.010Z,86.70
2019-03-11T12:13:09.789Z,87.48
2019-03-11T12:15:35.590Z,87.06
2019-03-11T12:18:01.388Z,87.78
2019-03-11T12:20:28.180Z,87.70
2019-03-11T12:22:53.975Z,87.01
2019-03-11T12:25:19.873Z,87.21
2019-03-11T12:27:53.811Z,87.47
2019-03-11T12:30:25.240Z,86.16
2019-03-11T12:32:51.022Z,87.00
2019-03-11T12:35:16.816Z,87.89
2019-03-11T12:37:42.603Z,88.25
2019-03-11T12:40:11.092Z,87.88
2019-03-11T12:42:36.884Z,87.91
2019-03-11T12:45:05.883Z,87.95
2019-03-11T12:47:31.664Z,88.07
2019-03-11T12:49:57.461Z,87.46
2019-03-11T12:52:23.240Z,87.51
2019-03-11T12:54:49.032Z,86.10
2019-03-11T12:57:14.832Z,85.77
2019-03-11T12:59:41.013Z,85.14
2019-03-11T13:02:06.930Z,84.98
2019-03-11T13:04:32.709Z,84.80
2019-03-11T13:06:58.517Z,83.14
2019-03-11T13:09:24.314Z,82.58
2019-03-11T13:11:50.145Z,82.80
2019-03-11T13:14:15.918Z,82.06
2019-03-11T13:16:41.714Z,80.25
2019-03-11T13:19:13.205Z,81.31
2019-03-11T13:21:36.067Z,82.24
2019-03-11T13:24:01.847Z,82.82
2019-03-11T13:26:27.652Z,82.96
2019-03-11T13:28:53.438Z,83.75
2019-03-11T13:31:19.239Z,84.93
2019-03-11T13:33:45.015Z,85.52
2019-03-11T13:36:10.808Z,84.97
2019-03-11T13:38:36.588Z,84.73
2019-03-11T13:41:02.889Z,86.48
2019-03-11T13:43:28.687Z,87.17
2019-03-11T13:45:54.496Z,88.33
2019-03-11T13:48:20.273Z,88.29
2019-03-11T13:50:46.068Z,88.81
2019-03-11T13:53:11.841Z,88.89
2019-03-11T13:55:37.628Z,89.26
2019-03-11T13:58:03.412Z,88.87
2019-03-11T14:00:29.308Z,88.22
2019-03-11T14:02:55.100Z,88.44
2019-03-11T14:05:20.892Z,88.46
2019-03-11T14:07:46.676Z,87.39
2019-03-11T14:10:13.670Z,86.02
2019-03-11T14:12:39.481Z,86.10
2019-03-11T14:15:13.672Z,86.97
2019-03-11T14:17:39.467Z,86.11
2019-03-11T14:20:08.462Z,85.23
2019-03-11T14:22:34.270Z,83.78
2019-03-11T14:25:00.090Z,85.04
2019-03-11T14:27:25.841Z,83.75
2019-03-11T14:29:51.633Z,84.22
2019-03-11T14:32:18.084Z,84.19
2019-03-11T14:34:44.029Z,84.66
2019-03-11T14:37:09.947Z,85.98
2019-03-11T14:39:35.728Z,85.67
2019-03-11T14:42:01.524Z,85.48
2019-03-11T14:44:27.306Z,85.47
2019-03-11T14:46:53.086Z,86.13
2019-03-11T14:49:18.868Z,86.44
2019-03-11T14:51:44.670Z,86.66
2019-03-11T14:54:10.499Z,86.94
2019-03-11T14:56:36.292Z,86.83
2019-03-11T14:59:02.067Z,86.80
2019-03-11T15:01:27.857Z,86.92
2019-03-11T15:03:53.740Z,87.10
2019-03-11T15:06:19.526Z,87.10
2019-03-11T15:08:45.323Z,86.95
2019-03-11T15:11:11.207Z,87.06
2019-03-11T15:13:37.025Z,87.34
2019-03-11T15:16:02.918Z,87.34
2019-03-11T15:18:28.703Z,87.40
2019-03-11T15:20:54.492Z,87.73
2019-03-11T15:23:21.087Z,87.43
2019-03-11T15:25:46.981Z,87.85
2019-03-11T15:28:13.227Z,87.91
2019-03-11T15:30:39.065Z,88.33
2019-03-11T15:33:04.857Z,88.07
2019-03-11T15:35:30.645Z,88.22
2019-03-11T15:37:56.440Z,88.08
2019-03-11T15:40:22.216Z,87.59
2019-03-11T15:42:48.015Z,87.25
2019-03-11T15:45:16.230Z,87.24
2019-03-11T15:47:42.008Z,87.05
2019-03-11T15:50:10.696Z,87.10
2019-03-11T15:52:36.500Z,87.36
2019-03-11T15:55:02.787Z,87.29
2019-03-11T15:57:38.477Z,87.59
2019-03-11T15:59:56.263Z,87.63
2019-03-11T16:02:22.083Z,88.09
2019-03-11T16:04:47.875Z,88.09
2019-03-11T16:07:13.668Z,88.20
2019-03-11T16:09:39.443Z,88.15
2019-03-11T16:12:05.235Z,87.95
2019-03-11T16:14:31.041Z,87.84
2019-03-11T16:16:56.923Z,88.18
2019-03-11T16:19:22.715Z,87.75
2019-03-11T16:21:48.494Z,88.10
2019-03-11T16:24:14.309Z,87.78
2019-03-11T16:26:40.092Z,88.11
2019-03-11T16:29:05.897Z,86.93
2019-03-11T16:31:31.681Z,86.93
2019-03-11T16:33:57.476Z,86.41
2019-03-11T16:36:23.271Z,86.33
2019-03-11T16:38:49.117Z,86.37
2019-03-11T16:41:14.859Z,86.56
2019-03-11T16:43:40.743Z,86.40
2019-03-11T16:46:06.539Z,86.70
2019-03-11T16:48:32.333Z,86.10
2019-03-11T16:50:58.132Z,86.09
2019-03-11T16:53:23.935Z,86.08
2019-03-11T16:55:51.610Z,85.85
2019-03-11T16:58:17.405Z,85.85
2019-03-11T17:00:44.791Z,85.94
2019-03-11T17:03:10.602Z,86.01
2019-03-11T17:05:36.390Z,86.11
2019-03-11T17:08:02.287Z,86.71
2019-03-11T17:10:28.163Z,86.70
2019-03-11T17:12:54.073Z,86.43
2019-03-11T17:15:19.951Z,86.83
2019-03-11T17:17:45.729Z,87.27
2019-03-11T17:20:13.884Z,87.45
2019-03-11T17:22:39.648Z,87.39
2019-03-11T17:25:08.251Z,87.45
2019-03-11T17:27:34.027Z,87.45
2019-03-11T17:29:59.920Z,87.66
2019-03-11T17:32:25.714Z,87.58
2019-03-11T17:34:51.558Z,86.91
2019-03-11T17:37:17.371Z,86.82
2019-03-11T17:39:43.181Z,87.18
2019-03-11T17:42:08.981Z,87.77
2019-03-11T17:44:34.785Z,87.41
2019-03-11T17:47:00.589Z,87.93
2019-03-11T17:49:26.377Z,88.21
2019-03-11T17:51:52.154Z,88.60
2019-03-11T17:54:17.948Z,89.08
2019-03-11T17:56:43.727Z,89.16
2019-03-11T17:59:09.521Z,89.18
2019-03-11T18:01:35.296Z,89.49
2019-03-11T18:04:01.124Z,89.67
2019-03-11T18:06:26.904Z,89.67
2019-03-11T18:08:52.692Z,89.59
2019-03-11T18:11:18.479Z,89.23
2019-03-11T18:13:44.273Z,90.35
2019-03-11T18:16:10.050Z,91.04
2019-03-11T18:18:35.845Z,91.25
2019-03-11T18:21:01.623Z,91.17
2019-03-11T18:23:27.431Z,91.21
2019-03-11T18:25:53.224Z,91.64
2019-03-11T18:28:19.038Z,91.88
2019-03-11T18:30:44.844Z,92.19
2019-03-11T18:33:10.629Z,92.37
2019-03-11T18:35:36.415Z,92.56
2019-03-11T18:38:04.488Z,92.17
2019-03-11T18:40:30.013Z,92.08
2019-03-11T18:42:55.803Z,92.10
2019-03-11T18:45:21.598Z,93.06
2019-03-11T18:47:47.411Z,93.03
2019-03-11T18:50:15.507Z,92.97
2019-03-11T18:52:41.269Z,93.13
2019-03-11T18:55:08.074Z,93.12
2019-03-11T18:57:33.886Z,92.75
2019-03-11T18:59:59.672Z,92.61
2019-03-11T19:02:25.442Z,92.24
2019-03-11T19:04:51.255Z,92.17
2019-03-11T19:07:17.049Z,91.48
2019-03-11T19:09:42.902Z,91.21
2019-03-11T19:12:08.738Z,90.78
2019-03-11T19:14:34.508Z,91.24
2019-03-11T19:17:00.315Z,90.80
2019-03-11T19:19:26.092Z,90.99
2019-03-11T19:21:51.909Z,91.76
2019-03-11T19:24:17.679Z,91.18
2019-03-11T19:26:43.487Z,91.13
2019-03-11T19:29:09.358Z,91.06
2019-03-11T19:31:35.226Z,91.17
2019-03-11T19:34:01.214Z,91.12
2019-03-11T19:36:26.992Z,91.00
2019-03-11T19:38:52.793Z,91.06
2019-03-11T19:41:18.571Z,91.34
2019-03-11T19:43:44.368Z,91.42
2019-03-11T19:46:10.143Z,91.98
2019-03-11T19:48:35.943Z,92.25
2019-03-11T19:51:01.836Z,91.61
2019-03-11T19:53:27.655Z,92.57
2019-03-11T19:55:53.448Z,92.46
2019-03-11T19:58:19.258Z,92.97
2019-03-11T20:00:45.066Z,92.84
2019-03-11T20:03:22.596Z,93.28
2019-03-11T20:05:38.662Z,93.17
2019-03-11T20:08:04.498Z,93.51
2019-03-11T20:10:30.454Z,93.74
2019-03-11T20:12:56.375Z,93.59
2019-03-11T20:15:22.173Z,93.31
2019-03-11T20:17:48.015Z,93.16
2019-03-11T20:20:15.392Z,93.04
2019-03-11T20:22:41.179Z,92.72
2019-03-11T20:25:10.335Z,92.71
2019-03-11T20:27:36.090Z,92.68
2019-03-11T20:30:05.654Z,92.63
2019-03-11T20:32:31.549Z,92.09
2019-03-11T20:34:57.262Z,91.91
2019-03-11T20:37:23.126Z,91.77
2019-03-11T20:39:48.978Z,91.64
2019-03-11T20:42:14.772Z,91.68
2019-03-11T20:44:40.576Z,91.38
2019-03-11T20:47:06.485Z,91.22
2019-03-11T20:49:32.235Z,91.12
2019-03-11T20:51:58.025Z,90.78
2019-03-11T20:54:23.788Z,90.57
2019-03-11T20:56:49.593Z,90.27
2019-03-11T20:59:15.378Z,89.80
2019-03-11T21:01:41.727Z,89.59
2019-03-11T21:04:07.693Z,89.05
2019-03-11T21:06:33.470Z,88.78
2019-03-11T21:08:59.270Z,88.77
2019-03-11T21:11:25.064Z,88.51
2019-03-11T21:13:51.932Z,88.06
2019-03-11T21:16:17.717Z,87.96
2019-03-11T21:18:45.117Z,87.49
2019-03-11T21:21:10.925Z,87.43
2019-03-11T21:23:36.755Z,87.65
2019-03-11T21:26:02.543Z,87.62
2019-03-11T21:28:28.375Z,87.70
2019-03-11T21:30:54.197Z,87.25
2019-03-11T21:33:19.997Z,87.23
2019-03-11T21:35:45.751Z,86.97
2019-03-11T21:38:11.664Z,86.78
2019-03-11T21:40:37.506Z,86.81
2019-03-11T21:43:03.345Z,86.60
2019-03-11T21:45:34.119Z,86.77
2019-03-11T21:47:56.888Z,86.43
2019-03-11T21:50:24.405Z,86.64
2019-03-11T21:52:50.378Z,87.14
2019-03-11T21:55:16.207Z,87.34
2019-03-11T21:57:42.059Z,87.61
2019-03-11T22:00:13.228Z,87.71
2019-03-11T22:02:39.048Z,87.66
2019-03-11T22:05:05.843Z,87.97
2019-03-11T22:07:31.657Z,88.03
2019-03-11T22:09:57.442Z,87.97
2019-03-11T22:12:23.254Z,88.00
2019-03-11T22:14:49.033Z,87.88
2019-03-11T22:17:14.835Z,87.59
2019-03-11T22:19:40.611Z,87.78
2019-03-11T22:22:06.404Z,88.10
2019-03-11T22:24:32.212Z,88.31
2019-03-11T22:26:58.017Z,89.03
2019-03-11T22:29:24.728Z,89.41
2019-03-11T22:31:50.766Z,90.00
2019-03-11T22:34:16.587Z,90.10
2019-03-11T22:36:42.405Z,90.28
2019-03-11T22:39:08.184Z,90.02
2019-03-11T22:41:33.966Z,89.90
2019-03-11T22:43:59.758Z,90.29
2019-03-11T22:46:25.534Z,90.11
2019-03-11T22:48:51.424Z,89.97
2019-03-11T22:51:17.207Z,89.85
2019-03-11T22:53:43.001Z,89.46
2019-03-11T22:56:08.781Z,89.59
2019-03-11T22:58:34.592Z,89.77
2019-03-11T23:01:01.376Z,90.04
2019-03-11T23:03:27.475Z,90.23
2019-03-11T23:05:58.138Z,89.66
2019-03-11T23:08:21.268Z,89.81
2019-03-11T23:10:47.204Z,89.70
2019-03-11T23:13:12.949Z,89.59
2019-03-11T23:15:38.747Z,89.63
2019-03-11T23:18:04.531Z,89.77
2019-03-11T23:20:30.308Z,90.31
2019-03-11T23:22:56.088Z,90.29
2019-03-11T23:25:21.898Z,90.56
2019-03-11T23:27:47.773Z,90.43
2019-03-11T23:30:13.680Z,90.42
2019-03-11T23:32:39.458Z,89.44
2019-03-11T23:35:05.849Z,89.54
2019-03-11T23:37:31.650Z,89.03
2019-03-11T23:39:57.455Z,89.93
2019-03-11T23:42:23.236Z,90.17
2019-03-11T23:44:49.032Z,89.51
2019-03-11T23:47:14.814Z,90.05
2019-03-11T23:49:40.607Z,90.30
2019-03-11T23:52:06.386Z,89.91
2019-03-11T23:54:32.180Z,89.86
2019-03-11T23:56:57.963Z,90.03
2019-03-11T23:59:23.763Z,90.04
